sensor_id;sensor_type;location;lat;lon;timestamp;P1;durP1;ratioP1;P2;durP2;ratioP2
17449;SDS011;8842;51.244;7.102;2023-12-14T00:00:31;15.13;;;14.33;;
17449;SDS011;8842;51.244;7.102;2023-12-14T00:05:35;15.17;;;14.37;;
17449;SDS011;8842;51.244;7.102;2023-12-14T00:10:49;14.83;;;14.03;;
17449;SDS011;8842;51.244;7.102;2023-12-14T00:15:53;14.90;;;14.10;;
17449;SDS011;8842;51.244;7.102;2023-12-14T00:20:57;14.70;;;13.90;;
17449;SDS011;8842;51.244;7.102;2023-12-14T00:26:01;14.30;;;13.53;;
17449;SDS011;8842;51.244;7.102;2023-12-14T00:31:13;14.67;;;13.87;;
17449;SDS011;8842;51.244;7.102;2023-12-14T00:36:20;14.50;;;13.60;;
17449;SDS011;8842;51.244;7.102;2023-12-14T00:41:24;14.20;;;13.50;;
17449;SDS011;8842;51.244;7.102;2023-12-14T00:46:36;14.40;;;13.60;;
17449;SDS011;8842;51.244;7.102;2023-12-14T00:51:40;14.70;;;13.90;;
17449;SDS011;8842;51.244;7.102;2023-12-14T00:56:52;14.70;;;13.90;;
17449;SDS011;8842;51.244;7.102;2023-12-14T01:01:56;14.87;;;14.07;;
17449;SDS011;8842;51.244;7.102;2023-12-14T01:12:11;14.80;;;14.00;;
17449;SDS011;8842;51.244;7.102;2023-12-14T01:17:15;14.70;;;13.90;;
17449;SDS011;8842;51.244;7.102;2023-12-14T01:22:30;14.60;;;13.80;;
17449;SDS011;8842;51.244;7.102;2023-12-14T01:27:34;14.53;;;13.73;;
17449;SDS011;8842;51.244;7.102;2023-12-14T01:32:38;14.53;;;13.73;;
17449;SDS011;8842;51.244;7.102;2023-12-14T01:37:51;14.27;;;13.57;;
17449;SDS011;8842;51.244;7.102;2023-12-14T01:42:59;14.50;;;13.70;;
17449;SDS011;8842;51.244;7.102;2023-12-14T01:48:21;14.80;;;14.00;;
17449;SDS011;8842;51.244;7.102;2023-12-14T01:53:26;14.73;;;13.93;;
17449;SDS011;8842;51.244;7.102;2023-12-14T01:58:30;14.87;;;14.07;;
17449;SDS011;8842;51.244;7.102;2023-12-14T02:03:34;14.93;;;14.13;;
17449;SDS011;8842;51.244;7.102;2023-12-14T02:08:47;14.67;;;13.87;;
17449;SDS011;8842;51.244;7.102;2023-12-14T02:19:02;14.63;;;13.83;;
17449;SDS011;8842;51.244;7.102;2023-12-14T02:29:18;14.70;;;13.90;;
17449;SDS011;8842;51.244;7.102;2023-12-14T02:34:22;14.50;;;13.70;;
17449;SDS011;8842;51.244;7.102;2023-12-14T02:39:27;14.50;;;13.70;;
17449;SDS011;8842;51.244;7.102;2023-12-14T02:44:31;13.80;;;13.10;;
17449;SDS011;8842;51.244;7.102;2023-12-14T02:49:35;14.40;;;13.60;;
17449;SDS011;8842;51.244;7.102;2023-12-14T02:54:47;15.30;;;14.40;;
17449;SDS011;8842;51.244;7.102;2023-12-14T03:05:02;14.00;;;13.30;;
17449;SDS011;8842;51.244;7.102;2023-12-14T03:10:08;14.40;;;13.60;;
17449;SDS011;8842;51.244;7.102;2023-12-14T03:15:20;14.30;;;13.50;;
17449;SDS011;8842;51.244;7.102;2023-12-14T03:20:25;14.47;;;13.67;;
17449;SDS011;8842;51.244;7.102;2023-12-14T03:25:36;14.13;;;13.43;;
17449;SDS011;8842;51.244;7.102;2023-12-14T03:30:41;14.40;;;13.60;;
17449;SDS011;8842;51.244;7.102;2023-12-14T03:35:45;14.37;;;13.60;;
17449;SDS011;8842;51.244;7.102;2023-12-14T03:40:58;14.20;;;13.50;;
17449;SDS011;8842;51.244;7.102;2023-12-14T03:46:04;14.50;;;13.70;;
17449;SDS011;8842;51.244;7.102;2023-12-14T03:51:09;14.80;;;14.00;;
17449;SDS011;8842;51.244;7.102;2023-12-14T03:56:23;14.83;;;14.03;;
17449;SDS011;8842;51.244;7.102;2023-12-14T04:01:35;15.20;;;14.40;;
17449;SDS011;8842;51.244;7.102;2023-12-14T04:06:41;15.37;;;14.57;;
17449;SDS011;8842;51.244;7.102;2023-12-14T04:11:53;15.40;;;14.60;;
17449;SDS011;8842;51.244;7.102;2023-12-14T04:16:57;15.17;;;14.37;;
17449;SDS011;8842;51.244;7.102;2023-12-14T04:22:01;15.30;;;14.50;;
17449;SDS011;8842;51.244;7.102;2023-12-14T04:27:05;15.43;;;14.63;;
17449;SDS011;8842;51.244;7.102;2023-12-14T04:32:17;15.30;;;14.50;;
17449;SDS011;8842;51.244;7.102;2023-12-14T04:37:21;15.40;;;14.60;;
17449;SDS011;8842;51.244;7.102;2023-12-14T04:42:33;15.23;;;14.43;;
17449;SDS011;8842;51.244;7.102;2023-12-14T04:47:37;15.50;;;14.70;;
17449;SDS011;8842;51.244;7.102;2023-12-14T04:52:50;15.37;;;14.57;;
17449;SDS011;8842;51.244;7.102;2023-12-14T04:57:54;15.50;;;14.70;;
17449;SDS011;8842;51.244;7.102;2023-12-14T05:02:58;15.70;;;14.80;;
17449;SDS011;8842;51.244;7.102;2023-12-14T05:08:10;15.40;;;14.60;;
17449;SDS011;8842;51.244;7.102;2023-12-14T05:13:14;15.47;;;14.67;;
17449;SDS011;8842;51.244;7.102;2023-12-14T05:18:26;15.43;;;14.63;;
17449;SDS011;8842;51.244;7.102;2023-12-14T05:23:30;15.07;;;14.27;;
17449;SDS011;8842;51.244;7.102;2023-12-14T05:28:34;15.10;;;14.30;;
17449;SDS011;8842;51.244;7.102;2023-12-14T05:33:38;15.20;;;14.40;;
17449;SDS011;8842;51.244;7.102;2023-12-14T05:38:53;15.17;;;14.37;;
17449;SDS011;8842;51.244;7.102;2023-12-14T05:43:57;15.07;;;14.27;;
17449;SDS011;8842;51.244;7.102;2023-12-14T05:49:01;15.50;;;14.70;;
17449;SDS011;8842;51.244;7.102;2023-12-14T05:54:05;15.30;;;14.50;;
17449;SDS011;8842;51.244;7.102;2023-12-14T05:59:09;15.30;;;14.50;;
17449;SDS011;8842;51.244;7.102;2023-12-14T06:04:21;15.90;;;15.00;;
17449;SDS011;8842;51.244;7.102;2023-12-14T06:09:26;15.40;;;14.60;;
17449;SDS011;8842;51.244;7.102;2023-12-14T06:14:37;15.50;;;14.70;;
17449;SDS011;8842;51.244;7.102;2023-12-14T06:19:41;15.60;;;14.80;;
17449;SDS011;8842;51.244;7.102;2023-12-14T06:24:53;15.87;;;14.97;;
17449;SDS011;8842;51.244;7.102;2023-12-14T06:29:57;15.97;;;15.07;;
17449;SDS011;8842;51.244;7.102;2023-12-14T06:35:09;15.93;;;15.03;;
17449;SDS011;8842;51.244;7.102;2023-12-14T06:40:14;15.83;;;14.93;;
17449;SDS011;8842;51.244;7.102;2023-12-14T06:45:25;15.70;;;14.80;;
17449;SDS011;8842;51.244;7.102;2023-12-14T06:50:29;15.77;;;14.87;;
17449;SDS011;8842;51.244;7.102;2023-12-14T06:55:41;16.13;;;15.23;;
17449;SDS011;8842;51.244;7.102;2023-12-14T07:00:45;15.53;;;14.73;;
17449;SDS011;8842;51.244;7.102;2023-12-14T07:05:57;15.50;;;14.70;;
17449;SDS011;8842;51.244;7.102;2023-12-14T07:11:01;15.73;;;14.83;;
17449;SDS011;8842;51.244;7.102;2023-12-14T07:16:06;15.20;;;14.40;;
17449;SDS011;8842;51.244;7.102;2023-12-14T07:21:12;14.97;;;14.17;;
17449;SDS011;8842;51.244;7.102;2023-12-14T07:26:26;15.47;;;14.67;;
17449;SDS011;8842;51.244;7.102;2023-12-14T07:31:30;15.27;;;14.47;;
17449;SDS011;8842;51.244;7.102;2023-12-14T07:36:36;15.50;;;14.70;;
17449;SDS011;8842;51.244;7.102;2023-12-14T07:41:40;15.50;;;14.70;;
17449;SDS011;8842;51.244;7.102;2023-12-14T07:46:44;15.47;;;14.67;;
17449;SDS011;8842;51.244;7.102;2023-12-14T07:51:49;15.37;;;14.57;;
17449;SDS011;8842;51.244;7.102;2023-12-14T07:56:53;14.70;;;13.90;;
17449;SDS011;8842;51.244;7.102;2023-12-14T08:01:57;14.93;;;14.13;;
17449;SDS011;8842;51.244;7.102;2023-12-14T08:07:01;15.67;;;14.87;;
17449;SDS011;8842;51.244;7.102;2023-12-14T08:12:13;15.93;;;15.07;;
17449;SDS011;8842;51.244;7.102;2023-12-14T08:17:18;15.73;;;14.83;;
17449;SDS011;8842;51.244;7.102;2023-12-14T08:22:22;16.40;;;15.50;;
17449;SDS011;8842;51.244;7.102;2023-12-14T08:27:27;14.53;;;13.73;;
17449;SDS011;8842;51.244;7.102;2023-12-14T08:32:31;16.20;;;15.40;;
17449;SDS011;8842;51.244;7.102;2023-12-14T08:37:35;15.80;;;15.00;;
17449;SDS011;8842;51.244;7.102;2023-12-14T08:42:39;15.97;;;15.10;;
17449;SDS011;8842;51.244;7.102;2023-12-14T08:47:43;15.30;;;14.50;;
17449;SDS011;8842;51.244;7.102;2023-12-14T08:52:47;15.60;;;14.80;;
17449;SDS011;8842;51.244;7.102;2023-12-14T08:57:52;15.50;;;14.70;;
17449;SDS011;8842;51.244;7.102;2023-12-14T09:02:56;16.30;;;15.40;;
17449;SDS011;8842;51.244;7.102;2023-12-14T09:08:00;15.63;;;14.83;;
17449;SDS011;8842;51.244;7.102;2023-12-14T09:13:12;15.40;;;14.60;;
17449;SDS011;8842;51.244;7.102;2023-12-14T09:18:16;16.10;;;15.20;;
17449;SDS011;8842;51.244;7.102;2023-12-14T09:23:20;16.17;;;15.37;;
17449;SDS011;8842;51.244;7.102;2023-12-14T09:28:25;15.73;;;14.90;;
17449;SDS011;8842;51.244;7.102;2023-12-14T09:33:29;15.40;;;14.60;;
17449;SDS011;8842;51.244;7.102;2023-12-14T09:38:33;14.90;;;14.10;;
17449;SDS011;8842;51.244;7.102;2023-12-14T09:43:38;15.10;;;14.30;;
17449;SDS011;8842;51.244;7.102;2023-12-14T09:48:42;15.07;;;14.27;;
17449;SDS011;8842;51.244;7.102;2023-12-14T09:53:47;15.50;;;14.70;;
17449;SDS011;8842;51.244;7.102;2023-12-14T09:58:51;15.20;;;14.40;;
17449;SDS011;8842;51.244;7.102;2023-12-14T10:04:07;14.87;;;14.07;;
17449;SDS011;8842;51.244;7.102;2023-12-14T10:09:12;15.40;;;14.60;;
17449;SDS011;8842;51.244;7.102;2023-12-14T10:14:26;14.60;;;13.80;;
17449;SDS011;8842;51.244;7.102;2023-12-14T10:19:30;15.03;;;14.23;;
17449;SDS011;8842;51.244;7.102;2023-12-14T10:24:43;15.30;;;14.50;;
17449;SDS011;8842;51.244;7.102;2023-12-14T10:29:47;15.10;;;14.30;;
17449;SDS011;8842;51.244;7.102;2023-12-14T10:35:01;15.37;;;14.57;;
17449;SDS011;8842;51.244;7.102;2023-12-14T10:40:07;15.10;;;14.30;;
17449;SDS011;8842;51.244;7.102;2023-12-14T10:45:13;15.10;;;14.30;;
17449;SDS011;8842;51.244;7.102;2023-12-14T10:50:19;14.73;;;13.93;;
17449;SDS011;8842;51.244;7.102;2023-12-14T10:55:25;14.90;;;14.10;;
17449;SDS011;8842;51.244;7.102;2023-12-14T11:00:33;15.30;;;14.50;;
17449;SDS011;8842;51.244;7.102;2023-12-14T11:05:37;15.23;;;14.43;;
17449;SDS011;8842;51.244;7.102;2023-12-14T11:10:42;15.27;;;14.47;;
17449;SDS011;8842;51.244;7.102;2023-12-14T11:15:54;15.93;;;15.13;;
17449;SDS011;8842;51.244;7.102;2023-12-14T11:20:59;15.23;;;14.43;;
17449;SDS011;8842;51.244;7.102;2023-12-14T11:26:04;15.20;;;14.40;;
17449;SDS011;8842;51.244;7.102;2023-12-14T11:31:11;15.17;;;14.37;;
17449;SDS011;8842;51.244;7.102;2023-12-14T11:36:15;15.40;;;14.60;;
17449;SDS011;8842;51.244;7.102;2023-12-14T11:41:20;15.57;;;14.77;;
17449;SDS011;8842;51.244;7.102;2023-12-14T11:46:28;15.50;;;14.70;;
17449;SDS011;8842;51.244;7.102;2023-12-14T11:51:33;15.10;;;14.30;;
17449;SDS011;8842;51.244;7.102;2023-12-14T11:56:46;14.67;;;13.87;;
17449;SDS011;8842;51.244;7.102;2023-12-14T12:01:54;15.27;;;14.47;;
17449;SDS011;8842;51.244;7.102;2023-12-14T12:07:03;15.23;;;14.43;;
17449;SDS011;8842;51.244;7.102;2023-12-14T12:12:17;15.03;;;14.23;;
17449;SDS011;8842;51.244;7.102;2023-12-14T12:17:21;15.47;;;14.67;;
17449;SDS011;8842;51.244;7.102;2023-12-14T12:22:26;14.87;;;14.07;;
17449;SDS011;8842;51.244;7.102;2023-12-14T12:27:30;15.20;;;14.40;;
17449;SDS011;8842;51.244;7.102;2023-12-14T12:32:34;15.13;;;14.33;;
17449;SDS011;8842;51.244;7.102;2023-12-14T12:37:45;15.40;;;14.60;;
17449;SDS011;8842;51.244;7.102;2023-12-14T12:42:49;15.23;;;14.43;;
17449;SDS011;8842;51.244;7.102;2023-12-14T12:47:54;15.30;;;14.50;;
17449;SDS011;8842;51.244;7.102;2023-12-14T12:52:58;15.90;;;15.10;;
17449;SDS011;8842;51.244;7.102;2023-12-14T12:58:02;15.43;;;14.63;;
17449;SDS011;8842;51.244;7.102;2023-12-14T13:03:08;15.77;;;14.97;;
17449;SDS011;8842;51.244;7.102;2023-12-14T13:08:20;15.70;;;14.90;;
17449;SDS011;8842;51.244;7.102;2023-12-14T13:13:25;15.70;;;14.90;;
17449;SDS011;8842;51.244;7.102;2023-12-14T13:18:29;15.40;;;14.60;;
17449;SDS011;8842;51.244;7.102;2023-12-14T13:23:33;15.30;;;14.50;;
17449;SDS011;8842;51.244;7.102;2023-12-14T13:28:45;15.50;;;14.70;;
17449;SDS011;8842;51.244;7.102;2023-12-14T13:33:49;14.87;;;14.07;;
17449;SDS011;8842;51.244;7.102;2023-12-14T13:39:01;15.07;;;14.27;;
17449;SDS011;8842;51.244;7.102;2023-12-14T13:49:19;15.20;;;14.40;;
17449;SDS011;8842;51.244;7.102;2023-12-14T13:54:23;15.00;;;14.20;;
17449;SDS011;8842;51.244;7.102;2023-12-14T13:59:27;15.27;;;14.47;;
17449;SDS011;8842;51.244;7.102;2023-12-14T14:04:31;15.27;;;14.47;;
17449;SDS011;8842;51.244;7.102;2023-12-14T14:09:35;15.27;;;14.47;;
17449;SDS011;8842;51.244;7.102;2023-12-14T14:14:39;15.13;;;14.33;;
17449;SDS011;8842;51.244;7.102;2023-12-14T14:19:43;15.20;;;14.40;;
17449;SDS011;8842;51.244;7.102;2023-12-14T14:24:48;15.60;;;14.80;;
17449;SDS011;8842;51.244;7.102;2023-12-14T14:29:59;16.00;;;15.10;;
17449;SDS011;8842;51.244;7.102;2023-12-14T14:35:04;15.70;;;14.90;;
17449;SDS011;8842;51.244;7.102;2023-12-14T14:40:10;15.40;;;14.60;;
17449;SDS011;8842;51.244;7.102;2023-12-14T14:45:14;15.80;;;14.90;;
17449;SDS011;8842;51.244;7.102;2023-12-14T14:50:18;15.60;;;14.80;;
17449;SDS011;8842;51.244;7.102;2023-12-14T14:55:22;15.80;;;15.00;;
17449;SDS011;8842;51.244;7.102;2023-12-14T15:00:35;16.23;;;15.33;;
17449;SDS011;8842;51.244;7.102;2023-12-14T15:05:41;16.67;;;15.77;;
17449;SDS011;8842;51.244;7.102;2023-12-14T15:10:46;16.33;;;15.43;;
17449;SDS011;8842;51.244;7.102;2023-12-14T15:15:54;16.33;;;15.53;;
17449;SDS011;8842;51.244;7.102;2023-12-14T15:21:06;16.70;;;15.80;;
17449;SDS011;8842;51.244;7.102;2023-12-14T15:26:11;15.80;;;15.00;;
17449;SDS011;8842;51.244;7.102;2023-12-14T15:31:15;16.37;;;15.47;;
17449;SDS011;8842;51.244;7.102;2023-12-14T15:36:20;15.53;;;14.73;;
17449;SDS011;8842;51.244;7.102;2023-12-14T15:41:25;15.23;;;14.43;;
17449;SDS011;8842;51.244;7.102;2023-12-14T15:46:29;16.17;;;15.27;;
17449;SDS011;8842;51.244;7.102;2023-12-14T15:51:34;15.57;;;14.77;;
17449;SDS011;8842;51.244;7.102;2023-12-14T15:56:40;15.53;;;14.73;;
17449;SDS011;8842;51.244;7.102;2023-12-14T16:01:45;15.43;;;14.63;;
17449;SDS011;8842;51.244;7.102;2023-12-14T16:06:49;15.70;;;14.90;;
17449;SDS011;8842;51.244;7.102;2023-12-14T16:11:54;15.43;;;14.63;;
17449;SDS011;8842;51.244;7.102;2023-12-14T16:17:06;16.13;;;15.23;;
17449;SDS011;8842;51.244;7.102;2023-12-14T16:22:10;15.80;;;15.00;;
17449;SDS011;8842;51.244;7.102;2023-12-14T16:27:21;15.50;;;14.70;;
17449;SDS011;8842;51.244;7.102;2023-12-14T16:32:26;15.27;;;14.47;;
17449;SDS011;8842;51.244;7.102;2023-12-14T16:37:30;15.67;;;14.87;;
17449;SDS011;8842;51.244;7.102;2023-12-14T16:42:34;15.33;;;14.53;;
17449;SDS011;8842;51.244;7.102;2023-12-14T16:47:38;15.20;;;14.40;;
17449;SDS011;8842;51.244;7.102;2023-12-14T16:52:43;15.53;;;14.73;;
17449;SDS011;8842;51.244;7.102;2023-12-14T16:57:47;15.37;;;14.57;;
17449;SDS011;8842;51.244;7.102;2023-12-14T17:03:03;14.97;;;14.17;;
17449;SDS011;8842;51.244;7.102;2023-12-14T17:08:07;15.17;;;14.37;;
17449;SDS011;8842;51.244;7.102;2023-12-14T17:13:19;14.70;;;13.90;;
17449;SDS011;8842;51.244;7.102;2023-12-14T17:18:23;15.50;;;14.60;;
17449;SDS011;8842;51.244;7.102;2023-12-14T17:23:27;14.93;;;14.13;;
17449;SDS011;8842;51.244;7.102;2023-12-14T17:28:31;15.20;;;14.40;;
17449;SDS011;8842;51.244;7.102;2023-12-14T17:33:36;15.37;;;14.57;;
17449;SDS011;8842;51.244;7.102;2023-12-14T17:38:47;15.10;;;14.30;;
17449;SDS011;8842;51.244;7.102;2023-12-14T17:43:52;16.30;;;15.40;;
17449;SDS011;8842;51.244;7.102;2023-12-14T17:48:56;16.87;;;15.97;;
17449;SDS011;8842;51.244;7.102;2023-12-14T17:54:08;15.80;;;15.00;;
17449;SDS011;8842;51.244;7.102;2023-12-14T17:59:12;16.20;;;15.40;;
17449;SDS011;8842;51.244;7.102;2023-12-14T18:04:25;15.27;;;14.47;;
17449;SDS011;8842;51.244;7.102;2023-12-14T18:09:29;15.50;;;14.70;;
17449;SDS011;8842;51.244;7.102;2023-12-14T18:14:33;15.70;;;14.90;;
17449;SDS011;8842;51.244;7.102;2023-12-14T18:19:38;15.10;;;14.30;;
17449;SDS011;8842;51.244;7.102;2023-12-14T18:24:42;15.20;;;14.40;;
17449;SDS011;8842;51.244;7.102;2023-12-14T18:29:46;15.07;;;14.27;;
17449;SDS011;8842;51.244;7.102;2023-12-14T18:34:50;14.90;;;14.10;;
17449;SDS011;8842;51.244;7.102;2023-12-14T18:39:54;15.07;;;14.27;;
17449;SDS011;8842;51.244;7.102;2023-12-14T18:45:07;15.17;;;14.37;;
17449;SDS011;8842;51.244;7.102;2023-12-14T18:50:12;14.83;;;14.03;;
17449;SDS011;8842;51.244;7.102;2023-12-14T18:55:24;15.70;;;14.90;;
17449;SDS011;8842;51.244;7.102;2023-12-14T19:00:28;15.10;;;14.30;;
17449;SDS011;8842;51.244;7.102;2023-12-14T19:05:32;14.90;;;14.10;;
17449;SDS011;8842;51.244;7.102;2023-12-14T19:10:38;14.80;;;14.00;;
17449;SDS011;8842;51.244;7.102;2023-12-14T19:15:49;14.63;;;13.83;;
17449;SDS011;8842;51.244;7.102;2023-12-14T19:20:53;14.63;;;13.83;;
17449;SDS011;8842;51.244;7.102;2023-12-14T19:26:05;15.27;;;14.47;;
17449;SDS011;8842;51.244;7.102;2023-12-14T19:31:09;14.80;;;14.00;;
17449;SDS011;8842;51.244;7.102;2023-12-14T19:36:21;15.20;;;14.40;;
17449;SDS011;8842;51.244;7.102;2023-12-14T19:41:25;15.50;;;14.70;;
17449;SDS011;8842;51.244;7.102;2023-12-14T19:46:29;15.70;;;14.90;;
17449;SDS011;8842;51.244;7.102;2023-12-14T19:51:36;15.40;;;14.60;;
17449;SDS011;8842;51.244;7.102;2023-12-14T19:56:43;15.30;;;14.50;;
17449;SDS011;8842;51.244;7.102;2023-12-14T20:01:48;15.53;;;14.73;;
17449;SDS011;8842;51.244;7.102;2023-12-14T20:06:52;15.40;;;14.60;;
17449;SDS011;8842;51.244;7.102;2023-12-14T20:11:57;15.60;;;14.80;;
17449;SDS011;8842;51.244;7.102;2023-12-14T20:17:02;16.10;;;15.20;;
17449;SDS011;8842;51.244;7.102;2023-12-14T20:22:06;15.87;;;15.07;;
17449;SDS011;8842;51.244;7.102;2023-12-14T20:27:10;15.80;;;15.00;;
17449;SDS011;8842;51.244;7.102;2023-12-14T20:32:14;16.27;;;15.37;;
17449;SDS011;8842;51.244;7.102;2023-12-14T20:37:19;16.20;;;15.30;;
17449;SDS011;8842;51.244;7.102;2023-12-14T20:42:30;16.17;;;15.27;;
17449;SDS011;8842;51.244;7.102;2023-12-14T20:47:34;15.77;;;14.97;;
17449;SDS011;8842;51.244;7.102;2023-12-14T20:52:39;15.90;;;15.07;;
17449;SDS011;8842;51.244;7.102;2023-12-14T20:57:45;15.40;;;14.60;;
17449;SDS011;8842;51.244;7.102;2023-12-14T21:02:49;15.37;;;14.57;;
17449;SDS011;8842;51.244;7.102;2023-12-14T21:07:54;15.13;;;14.33;;
17449;SDS011;8842;51.244;7.102;2023-12-14T21:12:58;15.13;;;14.33;;
17449;SDS011;8842;51.244;7.102;2023-12-14T21:18:02;15.60;;;14.80;;
17449;SDS011;8842;51.244;7.102;2023-12-14T21:23:06;15.60;;;14.80;;
17449;SDS011;8842;51.244;7.102;2023-12-14T21:28:18;15.40;;;14.60;;
17449;SDS011;8842;51.244;7.102;2023-12-14T21:33:23;15.63;;;14.83;;
17449;SDS011;8842;51.244;7.102;2023-12-14T21:38:37;15.87;;;15.07;;
17449;SDS011;8842;51.244;7.102;2023-12-14T21:43:42;15.80;;;15.00;;
17449;SDS011;8842;51.244;7.102;2023-12-14T21:48:46;15.37;;;14.57;;
17449;SDS011;8842;51.244;7.102;2023-12-14T21:53:50;15.37;;;14.57;;
17449;SDS011;8842;51.244;7.102;2023-12-14T21:59:05;15.33;;;14.53;;
17449;SDS011;8842;51.244;7.102;2023-12-14T22:04:09;15.23;;;14.43;;
17449;SDS011;8842;51.244;7.102;2023-12-14T22:09:13;15.07;;;14.27;;
17449;SDS011;8842;51.244;7.102;2023-12-14T22:14:25;15.20;;;14.40;;
17449;SDS011;8842;51.244;7.102;2023-12-14T22:19:29;15.40;;;14.60;;
17449;SDS011;8842;51.244;7.102;2023-12-14T22:24:33;15.77;;;14.97;;
17449;SDS011;8842;51.244;7.102;2023-12-14T22:29:37;15.40;;;14.60;;
17449;SDS011;8842;51.244;7.102;2023-12-14T22:34:49;15.50;;;14.70;;
17449;SDS011;8842;51.244;7.102;2023-12-14T22:39:53;15.27;;;14.47;;
17449;SDS011;8842;51.244;7.102;2023-12-14T22:45:06;15.20;;;14.40;;
17449;SDS011;8842;51.244;7.102;2023-12-14T22:50:11;15.27;;;14.47;;
17449;SDS011;8842;51.244;7.102;2023-12-14T22:55:22;14.83;;;14.03;;
17449;SDS011;8842;51.244;7.102;2023-12-14T23:05:38;14.90;;;14.10;;
17449;SDS011;8842;51.244;7.102;2023-12-14T23:10:42;14.93;;;14.13;;
17449;SDS011;8842;51.244;7.102;2023-12-14T23:15:47;14.77;;;13.97;;
17449;SDS011;8842;51.244;7.102;2023-12-14T23:20:51;14.90;;;14.10;;
17449;SDS011;8842;51.244;7.102;2023-12-14T23:25:55;14.83;;;14.03;;
17449;SDS011;8842;51.244;7.102;2023-12-14T23:31:07;15.17;;;14.37;;
17449;SDS011;8842;51.244;7.102;2023-12-14T23:36:11;14.90;;;14.10;;
17449;SDS011;8842;51.244;7.102;2023-12-14T23:41:24;14.80;;;14.00;;
17449;SDS011;8842;51.244;7.102;2023-12-14T23:46:28;14.83;;;14.03;;
17449;SDS011;8842;51.244;7.102;2023-12-14T23:51:32;14.80;;;14.00;;
17449;SDS011;8842;51.244;7.102;2023-12-14T23:56:36;14.77;;;13.97;;
